createdAt,value
2017-03-20T00:00:21.848Z,9.82
2017-03-20T00:01:22.619Z,9.76
2017-03-20T00:02:23.642Z,9.73
2017-03-20T00:03:24.411Z,9.74
2017-03-20T00:04:25.182Z,9.76
2017-03-20T00:05:25.954Z,9.82
2017-03-20T00:06:26.730Z,9.73
2017-03-20T00:07:27.750Z,9.77
2017-03-20T00:08:28.518Z,9.80
2017-03-20T00:09:29.290Z,9.92
2017-03-20T00:10:30.061Z,9.80
2017-03-20T00:11:30.831Z,9.83
2017-03-20T00:12:31.854Z,9.82
2017-03-20T00:13:32.625Z,9.82
2017-03-20T00:14:33.397Z,9.82
2017-03-20T00:15:34.166Z,9.83
2017-03-20T00:16:34.935Z,9.89
2017-03-20T00:17:35.954Z,9.77
2017-03-20T00:18:36.725Z,9.74
2017-03-20T00:19:37.498Z,9.82
2017-03-20T00:20:38.264Z,9.83
2017-03-20T00:21:39.035Z,9.84
2017-03-20T00:22:40.061Z,9.74
2017-03-20T00:23:40.824Z,9.83
2017-03-20T00:24:41.597Z,9.84
2017-03-20T00:25:42.368Z,9.87
2017-03-20T00:26:43.134Z,9.79
2017-03-20T00:27:44.155Z,9.79
2017-03-20T00:28:44.929Z,9.86
2017-03-20T00:29:45.699Z,9.83
2017-03-20T00:30:46.475Z,9.84
2017-03-20T00:31:47.245Z,9.89
2017-03-20T00:32:48.260Z,9.91
2017-03-20T00:33:49.029Z,9.79
2017-03-20T00:34:49.800Z,9.89
2017-03-20T00:35:50.572Z,9.91
2017-03-20T00:36:51.339Z,9.92
2017-03-20T00:37:52.361Z,9.84
2017-03-20T00:38:53.131Z,9.82
2017-03-20T00:39:53.900Z,9.79
2017-03-20T00:40:54.669Z,9.84
2017-03-20T00:41:55.439Z,9.94
2017-03-20T00:42:56.460Z,9.86
2017-03-20T00:43:57.234Z,9.92
2017-03-20T00:44:58.001Z,9.86
2017-03-20T00:45:58.776Z,9.86
2017-03-20T00:46:59.547Z,9.91
2017-03-20T00:48:00.570Z,9.84
2017-03-20T00:49:01.337Z,9.94
2017-03-20T00:50:02.137Z,9.86
2017-03-20T00:51:02.879Z,9.92
2017-03-20T00:52:03.653Z,9.94
2017-03-20T00:53:04.865Z,9.91
2017-03-20T00:54:05.636Z,9.79
2017-03-20T00:55:06.407Z,9.84
2017-03-20T00:56:07.176Z,9.80
2017-03-20T00:57:07.946Z,9.89
2017-03-20T00:58:08.972Z,9.77
2017-03-20T00:59:09.737Z,9.87
2017-03-20T01:00:10.507Z,9.83
2017-03-20T01:01:11.278Z,9.80
2017-03-20T01:02:12.043Z,9.87
2017-03-20T01:03:13.115Z,9.86
2017-03-20T01:04:13.889Z,9.84
2017-03-20T01:05:14.657Z,9.84
2017-03-20T01:06:15.428Z,9.86
2017-03-20T01:07:16.198Z,9.89
2017-03-20T01:08:17.221Z,9.80
2017-03-20T01:09:17.993Z,9.82
2017-03-20T01:10:18.761Z,9.84
2017-03-20T01:11:19.528Z,9.84
2017-03-20T01:12:20.302Z,9.83
2017-03-20T01:13:21.325Z,9.86
2017-03-20T01:14:22.092Z,9.82
2017-03-20T01:15:22.865Z,9.87
2017-03-20T01:16:23.636Z,9.86
2017-03-20T01:17:24.407Z,9.82
2017-03-20T01:18:25.427Z,9.87
2017-03-20T01:19:26.195Z,9.87
2017-03-20T01:20:26.967Z,9.84
2017-03-20T01:21:27.738Z,9.83
2017-03-20T01:22:28.512Z,9.92
2017-03-20T01:23:29.580Z,9.87
2017-03-20T01:24:30.354Z,9.82
2017-03-20T01:25:31.126Z,9.86
2017-03-20T01:26:31.897Z,9.91
2017-03-20T01:27:32.669Z,9.87
2017-03-20T01:28:33.740Z,9.82
2017-03-20T01:29:34.508Z,9.82
2017-03-20T01:30:35.280Z,9.84
2017-03-20T01:31:36.050Z,9.82
2017-03-20T01:32:36.820Z,9.82
2017-03-20T01:33:37.891Z,9.82
2017-03-20T01:34:38.663Z,9.92
2017-03-20T01:35:39.432Z,9.80
2017-03-20T01:36:40.201Z,9.89
2017-03-20T01:37:40.972Z,9.84
2017-03-20T01:38:41.992Z,9.91
2017-03-20T01:39:42.767Z,9.79
2017-03-20T01:40:43.536Z,9.84
2017-03-20T01:41:44.308Z,9.87
2017-03-20T01:42:45.079Z,9.86
2017-03-20T01:43:45.900Z,9.87
2017-03-20T01:44:46.668Z,9.80
2017-03-20T01:45:47.437Z,9.80
2017-03-20T01:46:48.206Z,9.89
2017-03-20T01:47:48.974Z,9.86
2017-03-20T01:48:49.742Z,9.89
2017-03-20T01:49:50.512Z,9.84
2017-03-20T01:50:51.284Z,9.80
2017-03-20T01:51:52.054Z,9.84
2017-03-20T01:52:52.827Z,9.86
2017-03-20T01:53:53.601Z,9.86
2017-03-20T01:54:54.367Z,9.86
2017-03-20T01:55:55.142Z,9.91
2017-03-20T01:56:55.911Z,9.79
2017-03-20T01:57:56.683Z,9.82
2017-03-20T01:58:57.452Z,9.79
2017-03-20T01:59:58.224Z,9.86
2017-03-20T02:00:58.995Z,9.82
2017-03-20T02:01:59.765Z,9.76
2017-03-20T02:03:00.538Z,9.77
2017-03-20T02:04:01.307Z,9.77
2017-03-20T02:05:02.077Z,9.80
2017-03-20T02:06:02.846Z,9.84
2017-03-20T02:07:03.615Z,9.86
2017-03-20T02:08:04.578Z,9.83
2017-03-20T02:09:05.347Z,9.83
2017-03-20T02:10:06.119Z,9.89
2017-03-20T02:11:06.889Z,9.73
2017-03-20T02:12:07.659Z,9.83
2017-03-20T02:13:08.430Z,9.69
2017-03-20T02:14:09.199Z,9.74
2017-03-20T02:15:09.973Z,9.77
2017-03-20T02:16:10.741Z,9.73
2017-03-20T02:17:11.507Z,9.82
2017-03-20T02:18:12.277Z,9.79
2017-03-20T02:19:13.303Z,9.73
2017-03-20T02:20:14.071Z,9.84
2017-03-20T02:21:14.842Z,9.77
2017-03-20T02:22:15.613Z,9.77
2017-03-20T02:23:16.383Z,9.83
2017-03-20T02:24:17.407Z,9.74
2017-03-20T02:25:18.178Z,9.76
2017-03-20T02:26:18.946Z,9.76
2017-03-20T02:27:19.720Z,9.74
2017-03-20T02:28:20.491Z,9.86
2017-03-20T02:29:21.510Z,9.83
2017-03-20T02:30:22.279Z,9.82
2017-03-20T02:31:23.047Z,9.73
2017-03-20T02:32:23.816Z,9.76
2017-03-20T02:33:24.590Z,9.82
2017-03-20T02:34:25.612Z,9.74
2017-03-20T02:35:26.379Z,9.87
2017-03-20T02:36:27.151Z,9.82
2017-03-20T02:37:27.919Z,9.83
2017-03-20T02:38:28.691Z,9.80
2017-03-20T02:39:29.758Z,9.77
2017-03-20T02:40:30.531Z,9.83
2017-03-20T02:41:31.299Z,9.73
2017-03-20T02:42:32.069Z,9.73
2017-03-20T02:43:32.847Z,9.69
2017-03-20T02:44:33.864Z,9.74
2017-03-20T02:45:34.638Z,9.84
2017-03-20T02:46:35.410Z,9.83
2017-03-20T02:47:36.182Z,9.76
2017-03-20T02:48:36.951Z,9.77
2017-03-20T02:49:38.215Z,9.92
2017-03-20T02:50:39.017Z,9.84
2017-03-20T02:51:39.756Z,9.83
2017-03-20T02:52:40.529Z,9.77
2017-03-20T02:53:41.297Z,9.83
2017-03-20T02:54:42.316Z,9.76
2017-03-20T02:55:43.086Z,9.73
2017-03-20T02:56:43.861Z,9.74
2017-03-20T02:57:44.628Z,9.74
2017-03-20T02:58:45.398Z,9.86
2017-03-20T02:59:46.424Z,9.76
2017-03-20T03:00:47.196Z,9.77
2017-03-20T03:01:47.965Z,9.74
2017-03-20T03:02:48.734Z,9.74
2017-03-20T03:03:49.506Z,9.69
2017-03-20T03:04:50.525Z,9.65
2017-03-20T03:05:51.294Z,9.68
2017-03-20T03:06:52.364Z,9.69
2017-03-20T03:07:53.136Z,9.69
2017-03-20T03:08:53.905Z,9.72
2017-03-20T03:09:54.675Z,9.73
2017-03-20T03:10:55.448Z,9.68
2017-03-20T03:11:56.474Z,9.66
2017-03-20T03:12:57.237Z,9.74
2017-03-20T03:13:58.009Z,9.66
2017-03-20T03:14:58.775Z,9.72
2017-03-20T03:15:59.544Z,9.68
2017-03-20T03:17:00.611Z,9.64
2017-03-20T03:18:01.379Z,9.69
2017-03-20T03:19:02.150Z,9.65
2017-03-20T03:20:02.921Z,9.74
2017-03-20T03:21:03.693Z,9.72
2017-03-20T03:22:04.757Z,9.69
2017-03-20T03:23:05.523Z,9.72
2017-03-20T03:24:06.294Z,9.65
2017-03-20T03:25:07.066Z,9.69
2017-03-20T03:26:07.832Z,9.73
2017-03-20T03:27:08.850Z,9.72
2017-03-20T03:28:09.619Z,9.69
2017-03-20T03:29:10.390Z,9.72
2017-03-20T03:30:11.183Z,9.66
2017-03-20T03:31:11.928Z,9.76
2017-03-20T03:32:12.947Z,9.74
2017-03-20T03:33:13.717Z,9.76
2017-03-20T03:34:14.489Z,9.74
2017-03-20T03:35:15.291Z,9.68
2017-03-20T03:36:16.029Z,9.68
2017-03-20T03:37:17.051Z,9.68
2017-03-20T03:38:18.009Z,9.65
2017-03-20T03:39:18.778Z,9.68
2017-03-20T03:40:19.544Z,9.69
2017-03-20T03:41:20.321Z,9.59
2017-03-20T03:42:21.332Z,9.74
2017-03-20T03:43:22.101Z,9.64
2017-03-20T03:44:22.874Z,9.73
2017-03-20T03:45:23.643Z,9.74
2017-03-20T03:46:24.415Z,9.69
2017-03-20T03:47:25.432Z,9.65
2017-03-20T03:48:26.201Z,9.72
2017-03-20T03:49:26.969Z,9.66
2017-03-20T03:50:27.740Z,9.69
2017-03-20T03:51:28.513Z,9.68
2017-03-20T03:52:29.528Z,9.62
2017-03-20T03:53:30.298Z,9.62
2017-03-20T03:54:31.065Z,9.69
2017-03-20T03:55:31.837Z,9.74
2017-03-20T03:56:32.607Z,9.69
2017-03-20T03:57:33.628Z,9.65
2017-03-20T03:58:34.396Z,9.76
2017-03-20T03:59:35.167Z,9.62
2017-03-20T04:00:35.941Z,9.69
2017-03-20T04:01:36.702Z,9.65
2017-03-20T04:02:37.772Z,9.68
2017-03-20T04:03:38.542Z,9.69
2017-03-20T04:04:39.311Z,9.77
2017-03-20T04:05:40.082Z,9.64
2017-03-20T04:06:40.848Z,9.73
2017-03-20T04:07:41.872Z,9.69
2017-03-20T04:08:42.643Z,9.77
2017-03-20T04:09:43.408Z,9.76
2017-03-20T04:10:44.174Z,9.69
2017-03-20T04:11:44.943Z,9.68
2017-03-20T04:12:45.962Z,9.64
2017-03-20T04:13:46.731Z,9.72
2017-03-20T04:14:47.533Z,9.65
2017-03-20T04:15:48.266Z,9.74
2017-03-20T04:16:49.040Z,9.73
2017-03-20T04:17:50.051Z,9.74
2017-03-20T04:18:50.820Z,9.73
2017-03-20T04:19:51.586Z,9.66
2017-03-20T04:20:52.357Z,9.72
2017-03-20T04:21:53.127Z,9.73
2017-03-20T04:22:54.146Z,9.72
2017-03-20T04:23:54.918Z,9.61
2017-03-20T04:24:55.689Z,9.69
2017-03-20T04:25:56.458Z,9.68
2017-03-20T04:26:57.230Z,9.69
2017-03-20T04:27:58.249Z,9.69
2017-03-20T04:28:59.019Z,9.65
2017-03-20T04:29:59.789Z,9.64
2017-03-20T04:31:00.557Z,9.65
2017-03-20T04:32:01.324Z,9.73
2017-03-20T04:33:02.345Z,9.65
2017-03-20T04:34:03.116Z,9.72
2017-03-20T04:35:03.882Z,9.69
2017-03-20T04:36:04.650Z,9.74
2017-03-20T04:37:05.423Z,9.73
2017-03-20T04:38:06.443Z,9.76
2017-03-20T04:39:07.215Z,9.82
2017-03-20T04:40:07.979Z,9.74
2017-03-20T04:41:08.751Z,9.74
2017-03-20T04:42:09.518Z,9.69
2017-03-20T04:43:10.539Z,9.72
2017-03-20T04:44:11.311Z,9.77
2017-03-20T04:45:12.078Z,9.66
2017-03-20T04:46:12.847Z,9.73
2017-03-20T04:47:13.613Z,9.73
2017-03-20T04:48:14.635Z,9.74
2017-03-20T04:49:15.405Z,9.77
2017-03-20T04:50:16.172Z,9.61
2017-03-20T04:51:16.942Z,9.79
2017-03-20T04:52:17.709Z,9.66
2017-03-20T04:53:18.733Z,9.66
2017-03-20T04:54:19.504Z,9.66
2017-03-20T04:55:20.276Z,9.65
2017-03-20T04:56:21.040Z,9.72
2017-03-20T04:57:21.808Z,9.64
2017-03-20T04:58:22.878Z,9.68
2017-03-20T04:59:23.651Z,9.74
2017-03-20T05:00:24.416Z,9.72
2017-03-20T05:01:25.186Z,9.73
2017-03-20T05:02:25.955Z,9.66
2017-03-20T05:03:26.978Z,9.73
2017-03-20T05:04:27.744Z,9.69
2017-03-20T05:05:28.517Z,9.77
2017-03-20T05:06:29.287Z,9.82
2017-03-20T05:07:30.054Z,9.73
2017-03-20T05:08:31.075Z,9.76
2017-03-20T05:09:31.846Z,9.79
2017-03-20T05:10:32.614Z,9.77
2017-03-20T05:11:33.384Z,9.76
2017-03-20T05:12:34.150Z,9.73
2017-03-20T05:13:35.173Z,9.77
2017-03-20T05:14:35.940Z,9.76
2017-03-20T05:15:36.708Z,9.73
2017-03-20T05:16:37.482Z,9.76
2017-03-20T05:17:38.249Z,9.84
2017-03-20T05:18:39.270Z,9.76
2017-03-20T05:19:40.040Z,9.73
2017-03-20T05:20:40.809Z,9.84
2017-03-20T05:21:41.583Z,9.76
2017-03-20T05:22:42.350Z,9.84
2017-03-20T05:23:43.372Z,9.83
2017-03-20T05:24:44.144Z,9.83
2017-03-20T05:25:44.913Z,9.80
2017-03-20T05:26:45.680Z,9.86
2017-03-20T05:27:46.450Z,9.89
2017-03-20T05:28:47.472Z,9.76
2017-03-20T05:29:48.242Z,9.87
2017-03-20T05:30:49.015Z,9.83
2017-03-20T05:31:49.782Z,9.84
2017-03-20T05:32:50.549Z,9.83
2017-03-20T05:33:51.572Z,9.86
2017-03-20T05:34:52.341Z,9.77
2017-03-20T05:35:53.112Z,9.84
2017-03-20T05:36:53.882Z,9.87
2017-03-20T05:37:54.652Z,9.84
2017-03-20T05:38:55.676Z,9.83
2017-03-20T05:39:56.444Z,9.86
2017-03-20T05:40:57.212Z,9.82
2017-03-20T05:41:57.987Z,9.84
2017-03-20T05:42:58.756Z,9.86
2017-03-20T05:43:59.778Z,9.86
2017-03-20T05:45:00.552Z,9.74
2017-03-20T05:46:01.320Z,9.89
2017-03-20T05:47:02.095Z,9.86
2017-03-20T05:48:02.863Z,9.73
2017-03-20T05:49:03.886Z,9.76
2017-03-20T05:50:04.660Z,9.76
2017-03-20T05:51:05.424Z,9.66
2017-03-20T05:52:06.195Z,9.66
2017-03-20T05:53:06.969Z,9.64
2017-03-20T05:54:07.993Z,9.73
2017-03-20T05:55:08.765Z,9.76
2017-03-20T05:56:09.534Z,9.64
2017-03-20T05:57:10.303Z,9.74
2017-03-20T05:58:11.075Z,9.76
2017-03-20T05:59:12.097Z,9.69
2017-03-20T06:00:12.871Z,9.77
2017-03-20T06:01:13.641Z,9.72
2017-03-20T06:02:14.416Z,9.77
2017-03-20T06:03:15.191Z,9.84
2017-03-20T06:04:16.213Z,9.84
2017-03-20T06:05:16.984Z,9.86
2017-03-20T06:06:17.760Z,9.89
2017-03-20T06:07:18.534Z,9.89
2017-03-20T06:08:19.307Z,9.77
2017-03-20T06:09:20.327Z,9.87
2017-03-20T06:10:21.095Z,9.87
2017-03-20T06:11:21.866Z,9.84
2017-03-20T06:12:22.641Z,9.91
2017-03-20T06:13:23.415Z,9.89
2017-03-20T06:14:24.435Z,9.83
2017-03-20T06:15:25.208Z,9.89
2017-03-20T06:16:25.979Z,9.87
2017-03-20T06:17:26.748Z,9.86
2017-03-20T06:18:27.521Z,9.86
2017-03-20T06:19:28.545Z,9.80
2017-03-20T06:20:29.319Z,9.83
2017-03-20T06:21:30.092Z,9.80
2017-03-20T06:22:30.864Z,9.86
2017-03-20T06:23:31.638Z,9.80
2017-03-20T06:24:32.661Z,9.83
2017-03-20T06:25:33.625Z,9.84
2017-03-20T06:26:34.395Z,9.84
2017-03-20T06:27:35.171Z,9.87
2017-03-20T06:28:35.946Z,9.91
2017-03-20T06:29:36.967Z,9.87
2017-03-20T06:30:37.738Z,9.84
2017-03-20T06:31:38.512Z,9.84
2017-03-20T06:32:39.285Z,9.91
2017-03-20T06:33:40.057Z,9.99
2017-03-20T06:34:41.082Z,9.99
2017-03-20T06:35:41.857Z,9.98
2017-03-20T06:36:42.631Z,10.02
2017-03-20T06:37:43.408Z,9.95
2017-03-20T06:38:44.179Z,10.01
2017-03-20T06:39:45.202Z,9.99
2017-03-20T06:40:45.976Z,9.99
2017-03-20T06:41:46.754Z,10.02
2017-03-20T06:42:47.524Z,10.01
2017-03-20T06:43:48.297Z,10.02
2017-03-20T06:44:49.323Z,10.01
2017-03-20T06:45:50.100Z,10.09
2017-03-20T06:46:50.872Z,10.09
2017-03-20T06:47:51.647Z,10.02
2017-03-20T06:48:52.420Z,10.02
2017-03-20T06:49:53.446Z,10.07
2017-03-20T06:50:54.221Z,10.04
2017-03-20T06:51:54.996Z,10.05
2017-03-20T06:52:55.769Z,10.12
2017-03-20T06:53:56.545Z,10.15
2017-03-20T06:54:57.570Z,10.16
2017-03-20T06:55:58.537Z,10.15
2017-03-20T06:56:59.308Z,10.20
2017-03-20T06:58:00.082Z,10.20
2017-03-20T06:59:00.858Z,10.17
2017-03-20T07:00:01.884Z,10.15
2017-03-20T07:01:02.662Z,10.23
2017-03-20T07:02:03.438Z,10.17
2017-03-20T07:03:04.215Z,10.19
2017-03-20T07:04:04.989Z,10.20
2017-03-20T07:05:06.014Z,10.15
2017-03-20T07:06:06.797Z,10.17
2017-03-20T07:07:07.566Z,10.10
2017-03-20T07:08:08.344Z,10.23
2017-03-20T07:09:09.120Z,10.17
2017-03-20T07:10:10.195Z,10.22
2017-03-20T07:11:10.971Z,10.22
2017-03-20T07:12:11.749Z,10.23
2017-03-20T07:13:12.522Z,10.25
2017-03-20T07:14:13.296Z,10.25
2017-03-20T07:15:14.322Z,10.22
2017-03-20T07:16:15.101Z,10.23
2017-03-20T07:17:15.874Z,10.13
2017-03-20T07:18:16.648Z,10.23
2017-03-20T07:19:17.425Z,10.23
2017-03-20T07:20:18.452Z,10.23
2017-03-20T07:21:19.234Z,10.25
2017-03-20T07:22:20.003Z,10.15
2017-03-20T07:23:20.774Z,10.13
2017-03-20T07:24:21.549Z,10.19
2017-03-20T07:25:22.574Z,10.23
2017-03-20T07:26:23.352Z,10.20
2017-03-20T07:27:24.126Z,10.20
2017-03-20T07:28:24.905Z,10.15
2017-03-20T07:29:25.683Z,10.17
2017-03-20T07:30:26.712Z,10.15
2017-03-20T07:31:27.485Z,10.17
2017-03-20T07:32:28.259Z,10.19
2017-03-20T07:33:29.233Z,10.22
2017-03-20T07:34:30.618Z,10.17
2017-03-20T07:35:31.643Z,10.09
2017-03-20T07:36:32.564Z,10.07
2017-03-20T07:37:33.489Z,10.07
2017-03-20T07:38:34.263Z,10.10
2017-03-20T07:39:35.240Z,10.02
2017-03-20T07:40:36.267Z,10.04
2017-03-20T07:41:39.695Z,10.04
2017-03-20T07:42:40.471Z,10.04
2017-03-20T07:43:41.392Z,10.04
2017-03-20T07:44:42.168Z,10.05
2017-03-20T07:45:43.389Z,9.99
2017-03-20T07:46:46.649Z,10.10
2017-03-20T07:47:49.426Z,10.04
2017-03-20T07:48:50.204Z,10.04
2017-03-20T07:49:50.977Z,10.01
2017-03-20T07:50:52.001Z,9.99
2017-03-20T07:51:52.774Z,10.01
2017-03-20T07:52:54.926Z,9.94
2017-03-20T07:53:55.902Z,9.95
2017-03-20T07:54:56.876Z,10.01
2017-03-20T07:55:58.105Z,10.07
2017-03-20T07:57:01.128Z,9.99
2017-03-20T07:58:01.908Z,10.05
2017-03-20T07:59:02.677Z,9.98
2017-03-20T08:01:08.340Z,9.99
2017-03-20T08:02:09.721Z,9.98
2017-03-20T08:03:10.498Z,9.89
2017-03-20T08:04:11.269Z,9.83
2017-03-20T08:05:14.545Z,9.84
2017-03-20T08:06:15.807Z,9.79
2017-03-20T08:07:16.577Z,9.82
2017-03-20T08:08:17.549Z,9.79
2017-03-20T08:09:19.705Z,9.84
2017-03-20T08:10:20.681Z,9.86
2017-03-20T08:11:21.703Z,9.84
2017-03-20T08:12:22.822Z,9.74
2017-03-20T08:13:23.803Z,9.76
2017-03-20T08:14:24.579Z,9.76
2017-03-20T08:15:25.352Z,9.84
2017-03-20T08:16:26.371Z,9.74
2017-03-20T08:17:27.146Z,9.76
2017-03-20T08:18:27.921Z,9.79
2017-03-20T08:19:28.700Z,9.66
2017-03-20T08:20:29.473Z,9.73
2017-03-20T08:21:30.500Z,9.82
2017-03-20T08:22:31.281Z,9.74
2017-03-20T08:23:32.054Z,9.86
2017-03-20T08:24:32.828Z,9.72
2017-03-20T08:25:33.601Z,9.82
2017-03-20T08:26:34.623Z,9.83
2017-03-20T08:27:35.395Z,9.92
2017-03-20T08:28:36.171Z,9.77
2017-03-20T08:29:36.945Z,9.89
2017-03-20T08:30:37.720Z,9.86
2017-03-20T08:31:38.747Z,9.79
2017-03-20T08:32:39.526Z,9.80
2017-03-20T08:33:40.301Z,9.77
2017-03-20T08:34:41.073Z,9.89
2017-03-20T08:35:41.846Z,9.82
2017-03-20T08:36:42.871Z,9.79
2017-03-20T08:37:43.648Z,9.87
2017-03-20T08:38:44.420Z,9.86
2017-03-20T08:39:45.198Z,9.91
2017-03-20T08:40:45.973Z,9.83
2017-03-20T08:41:46.999Z,9.87
2017-03-20T08:42:47.774Z,9.83
2017-03-20T08:43:48.549Z,9.82
2017-03-20T08:44:49.327Z,9.83
2017-03-20T08:45:50.105Z,9.79
2017-03-20T08:46:51.128Z,9.79
2017-03-20T08:47:51.903Z,9.86
2017-03-20T08:48:52.680Z,9.80
2017-03-20T08:49:53.452Z,9.86
2017-03-20T08:50:54.231Z,9.91
2017-03-20T08:51:55.256Z,9.89
2017-03-20T08:52:56.033Z,9.80
2017-03-20T08:53:56.813Z,9.80
2017-03-20T08:54:57.587Z,9.92
2017-03-20T08:55:58.365Z,9.89
2017-03-20T08:56:59.392Z,9.89
2017-03-20T08:58:00.167Z,9.84
2017-03-20T08:59:00.942Z,9.92
2017-03-20T09:00:01.717Z,9.95
2017-03-20T09:01:02.495Z,10.05
2017-03-20T09:02:03.522Z,9.99
2017-03-20T09:03:04.297Z,10.07
2017-03-20T09:04:05.073Z,10.02
2017-03-20T09:05:05.848Z,10.02
2017-03-20T09:06:06.629Z,9.99
2017-03-20T09:07:07.652Z,9.97
2017-03-20T09:08:08.429Z,9.99
2017-03-20T09:09:09.205Z,9.97
2017-03-20T09:10:09.978Z,9.98
2017-03-20T09:11:10.756Z,9.99
2017-03-20T09:12:11.782Z,10.02
2017-03-20T09:13:12.562Z,10.02
2017-03-20T09:14:13.339Z,10.10
2017-03-20T09:15:14.113Z,10.09
2017-03-20T09:16:14.895Z,10.12
2017-03-20T09:17:15.920Z,10.13
2017-03-20T09:18:16.696Z,10.13
2017-03-20T09:19:17.472Z,10.13
2017-03-20T09:20:18.286Z,10.05
2017-03-20T09:21:19.029Z,10.09
2017-03-20T09:22:20.060Z,10.15
2017-03-20T09:23:20.835Z,10.16
2017-03-20T09:24:21.611Z,10.17
2017-03-20T09:25:22.390Z,10.16
2017-03-20T09:26:23.167Z,10.12
2017-03-20T09:27:24.249Z,10.25
2017-03-20T09:28:25.025Z,10.16
2017-03-20T09:29:25.805Z,10.10
2017-03-20T09:30:26.579Z,10.25
2017-03-20T09:31:27.357Z,10.22
2017-03-20T09:32:28.384Z,10.19
2017-03-20T09:33:29.160Z,10.33
2017-03-20T09:34:29.937Z,10.35
2017-03-20T09:35:30.716Z,10.35
2017-03-20T09:36:31.494Z,10.33
2017-03-20T09:37:32.522Z,10.40
2017-03-20T09:38:33.299Z,10.33
2017-03-20T09:39:34.079Z,10.33
2017-03-20T09:40:34.856Z,10.37
2017-03-20T09:41:35.637Z,10.34
2017-03-20T09:42:36.847Z,10.31
2017-03-20T09:43:37.626Z,10.31
2017-03-20T09:44:38.402Z,10.37
2017-03-20T09:45:39.366Z,10.40
2017-03-20T09:46:40.141Z,10.37
2017-03-20T09:47:41.171Z,10.37
2017-03-20T09:48:41.949Z,10.25
2017-03-20T09:49:42.728Z,10.20
2017-03-20T09:50:43.502Z,10.30
2017-03-20T09:51:44.281Z,10.26
2017-03-20T09:52:45.307Z,10.22
2017-03-20T09:53:46.270Z,10.25
2017-03-20T09:54:47.048Z,10.22
2017-03-20T09:55:47.821Z,10.15
2017-03-20T09:56:48.600Z,10.17
2017-03-20T09:57:49.625Z,10.25
2017-03-20T09:58:50.404Z,10.28
2017-03-20T09:59:51.182Z,10.23
2017-03-20T10:00:51.958Z,10.20
2017-03-20T10:01:52.736Z,10.20
2017-03-20T10:02:53.763Z,10.23
2017-03-20T10:03:54.542Z,10.23
2017-03-20T10:04:55.319Z,10.30
2017-03-20T10:05:56.096Z,10.19
2017-03-20T10:06:56.873Z,10.26
2017-03-20T10:07:57.947Z,10.34
2017-03-20T10:08:58.912Z,10.28
2017-03-20T10:09:59.689Z,10.17
2017-03-20T10:11:00.466Z,10.30
2017-03-20T10:12:01.240Z,10.25
2017-03-20T10:13:02.269Z,10.20
2017-03-20T10:14:03.046Z,10.22
2017-03-20T10:15:03.822Z,10.16
2017-03-20T10:16:04.596Z,10.16
2017-03-20T10:17:05.370Z,10.13
2017-03-20T10:18:06.395Z,10.19
2017-03-20T10:19:07.170Z,10.22
2017-03-20T10:20:07.947Z,10.20
2017-03-20T10:21:08.725Z,10.13
2017-03-20T10:22:09.504Z,10.12
2017-03-20T10:23:10.530Z,10.10
2017-03-20T10:24:11.308Z,10.17
2017-03-20T10:25:12.086Z,10.17
2017-03-20T10:26:12.867Z,10.17
2017-03-20T10:27:13.641Z,10.19
2017-03-20T10:28:14.668Z,10.10
2017-03-20T10:29:15.445Z,10.17
2017-03-20T10:30:16.224Z,10.19
2017-03-20T10:31:16.997Z,10.20
2017-03-20T10:32:17.777Z,10.23
2017-03-20T10:33:19.045Z,10.17
2017-03-20T10:34:19.819Z,10.19
2017-03-20T10:35:20.594Z,10.16
2017-03-20T10:36:21.375Z,10.19
2017-03-20T10:37:22.150Z,10.20
2017-03-20T10:38:23.176Z,10.17
2017-03-20T10:39:23.955Z,10.19
2017-03-20T10:40:24.730Z,10.26
2017-03-20T10:41:25.505Z,10.33
2017-03-20T10:42:26.285Z,10.31
2017-03-20T10:43:27.310Z,10.41
2017-03-20T10:44:28.089Z,10.40
2017-03-20T10:45:28.867Z,10.40
2017-03-20T10:46:29.647Z,10.38
2017-03-20T10:47:30.420Z,10.44
2017-03-20T10:48:31.448Z,10.49
2017-03-20T10:49:32.224Z,10.42
2017-03-20T10:50:32.998Z,10.53
2017-03-20T10:51:33.779Z,10.46
2017-03-20T10:52:34.555Z,10.41
2017-03-20T10:53:35.584Z,10.40
2017-03-20T10:54:36.360Z,10.44
2017-03-20T10:55:37.139Z,10.44
2017-03-20T10:56:37.914Z,10.40
2017-03-20T10:57:38.691Z,10.38
2017-03-20T10:58:39.718Z,10.42
2017-03-20T10:59:40.497Z,10.40
2017-03-20T11:00:41.276Z,10.37
2017-03-20T11:01:42.056Z,10.42
2017-03-20T11:02:42.831Z,10.42
2017-03-20T11:03:43.909Z,10.44
2017-03-20T11:04:44.686Z,10.44
2017-03-20T11:05:45.467Z,10.44
2017-03-20T11:06:46.244Z,10.51
2017-03-20T11:07:47.022Z,10.41
2017-03-20T11:08:48.051Z,10.34
2017-03-20T11:09:48.826Z,10.41
2017-03-20T11:10:49.607Z,10.31
2017-03-20T11:11:50.384Z,10.44
2017-03-20T11:12:51.165Z,10.44
2017-03-20T11:13:52.190Z,10.42
2017-03-20T11:14:52.973Z,10.44
2017-03-20T11:15:53.747Z,10.34
2017-03-20T11:16:54.527Z,10.35
2017-03-20T11:17:55.306Z,10.35
2017-03-20T11:18:56.335Z,10.35
2017-03-20T11:19:57.112Z,10.34
2017-03-20T11:20:57.894Z,10.44
2017-03-20T11:21:58.671Z,10.44
2017-03-20T11:22:59.451Z,10.46
2017-03-20T11:24:00.478Z,10.54
2017-03-20T11:25:01.256Z,10.49
2017-03-20T11:26:02.041Z,10.49
2017-03-20T11:27:02.812Z,10.48
2017-03-20T11:28:03.589Z,10.48
2017-03-20T11:29:04.618Z,10.51
2017-03-20T11:30:05.397Z,10.44
2017-03-20T11:31:06.174Z,10.44
2017-03-20T11:32:06.952Z,10.46
2017-03-20T11:33:07.734Z,10.44
2017-03-20T11:34:08.768Z,10.48
2017-03-20T11:35:09.543Z,10.56
2017-03-20T11:36:10.320Z,10.61
2017-03-20T11:37:11.095Z,10.44
2017-03-20T11:38:11.877Z,10.51
2017-03-20T11:39:12.902Z,10.42
2017-03-20T11:40:13.685Z,10.46
2017-03-20T11:41:14.463Z,10.51
2017-03-20T11:42:15.240Z,10.54
2017-03-20T11:43:16.018Z,10.51
2017-03-20T11:44:17.048Z,10.59
2017-03-20T11:45:17.821Z,10.44
2017-03-20T11:46:18.598Z,10.44
2017-03-20T11:47:19.381Z,10.48
2017-03-20T11:48:20.156Z,10.49
2017-03-20T11:49:21.185Z,10.42
2017-03-20T11:50:21.963Z,10.51
2017-03-20T11:51:22.743Z,10.42
2017-03-20T11:52:23.523Z,10.44
2017-03-20T11:53:24.299Z,10.46
2017-03-20T11:54:25.327Z,10.51
2017-03-20T11:55:26.106Z,10.44
2017-03-20T11:56:26.883Z,10.49
2017-03-20T11:57:27.660Z,10.46
2017-03-20T11:58:28.436Z,10.41
2017-03-20T11:59:29.463Z,10.41
2017-03-20T12:00:30.240Z,10.49
2017-03-20T12:01:31.014Z,10.40
2017-03-20T12:02:31.795Z,10.44
2017-03-20T12:03:32.573Z,10.48
2017-03-20T12:04:33.603Z,10.54
2017-03-20T12:05:34.387Z,10.64
2017-03-20T12:06:35.162Z,10.53
2017-03-20T12:07:35.937Z,10.56
2017-03-20T12:08:36.714Z,10.69
2017-03-20T12:09:37.791Z,10.67
2017-03-20T12:10:38.570Z,10.69
2017-03-20T12:11:39.345Z,10.75
2017-03-20T12:12:40.125Z,10.84
2017-03-20T12:13:41.088Z,10.89
2017-03-20T12:14:42.118Z,10.93
2017-03-20T12:15:42.895Z,10.92
2017-03-20T12:16:43.669Z,10.93
2017-03-20T12:17:44.445Z,11.08
2017-03-20T12:18:45.222Z,11.07
2017-03-20T12:19:46.438Z,11.11
2017-03-20T12:20:47.216Z,11.12
2017-03-20T12:21:47.997Z,11.11
2017-03-20T12:22:48.771Z,11.19
2017-03-20T12:23:49.550Z,11.29
2017-03-20T12:24:50.582Z,11.29
2017-03-20T12:25:51.359Z,11.29
2017-03-20T12:26:52.140Z,11.32
2017-03-20T12:27:52.922Z,11.35
2017-03-20T12:28:53.703Z,11.37
2017-03-20T12:29:54.734Z,11.33
2017-03-20T12:30:55.513Z,11.37
2017-03-20T12:31:56.289Z,11.37
2017-03-20T12:32:57.072Z,11.48
2017-03-20T12:33:57.854Z,11.48
2017-03-20T12:34:58.882Z,11.54
2017-03-20T12:35:59.661Z,11.57
2017-03-20T12:37:00.444Z,11.57
2017-03-20T12:38:01.223Z,11.70
2017-03-20T12:39:02.004Z,11.77
2017-03-20T12:40:03.089Z,11.75
2017-03-20T12:41:03.898Z,11.77
2017-03-20T12:42:04.646Z,11.68
2017-03-20T12:43:05.423Z,11.63
2017-03-20T12:44:06.204Z,11.77
2017-03-20T12:45:07.230Z,11.80
2017-03-20T12:46:08.007Z,11.86
2017-03-20T12:47:08.793Z,11.78
2017-03-20T12:48:09.567Z,11.78
2017-03-20T12:49:10.346Z,11.87
2017-03-20T12:50:11.374Z,11.73
2017-03-20T12:51:12.152Z,11.68
2017-03-20T12:52:12.931Z,11.77
2017-03-20T12:53:13.711Z,11.78
2017-03-20T12:54:14.495Z,11.72
2017-03-20T12:55:15.522Z,11.78
2017-03-20T12:56:16.295Z,11.80
2017-03-20T12:57:17.072Z,11.80
2017-03-20T12:58:17.850Z,11.80
2017-03-20T12:59:18.626Z,11.69
2017-03-20T13:00:19.653Z,11.81
2017-03-20T13:01:20.430Z,11.88
2017-03-20T13:02:21.208Z,11.78
2017-03-20T13:03:22.170Z,11.81
2017-03-20T13:04:22.946Z,11.88
2017-03-20T13:05:23.976Z,11.84
2017-03-20T13:06:24.751Z,11.88
2017-03-20T13:07:25.527Z,11.95
2017-03-20T13:08:26.306Z,11.97
2017-03-20T13:09:27.086Z,11.99
2017-03-20T13:10:28.111Z,12.12
2017-03-20T13:11:28.890Z,12.04
2017-03-20T13:12:29.662Z,12.10
2017-03-20T13:13:30.437Z,12.17
2017-03-20T13:14:31.214Z,12.18
2017-03-20T13:15:32.429Z,12.21
2017-03-20T13:16:33.203Z,12.18
2017-03-20T13:17:33.979Z,12.17
2017-03-20T13:18:34.759Z,12.22
2017-03-20T13:19:35.538Z,12.32